createdAt,value
2017-12-19T00:00:26.606Z,31.67
2017-12-19T00:02:57.324Z,35.87
2017-12-19T00:05:28.060Z,34.90
2017-12-19T00:07:58.752Z,32.17
2017-12-19T00:10:29.441Z,33.47
2017-12-19T00:13:00.135Z,30.87
2017-12-19T00:15:30.811Z,34.13
2017-12-19T00:18:01.516Z,29.27
2017-12-19T00:20:32.233Z,31.50
2017-12-19T00:23:02.948Z,29.13
2017-12-19T00:25:33.644Z,30.53
2017-12-19T00:28:04.361Z,29.17
2017-12-19T00:30:35.120Z,30.20
2017-12-19T00:33:05.808Z,28.13
2017-12-19T00:35:36.533Z,32.07
2017-12-19T00:38:07.228Z,30.83
2017-12-19T00:40:37.930Z,32.43
2017-12-19T00:43:08.618Z,30.60
2017-12-19T00:45:39.313Z,28.77
2017-12-19T00:48:09.976Z,27.17
2017-12-19T00:50:40.692Z,32.97
2017-12-19T00:53:11.392Z,32.77
2017-12-19T00:55:42.121Z,32.67
2017-12-19T00:58:12.845Z,32.07
2017-12-19T01:00:43.533Z,36.00
2017-12-19T01:03:14.231Z,30.87
2017-12-19T01:05:44.922Z,29.13
2017-12-19T01:08:15.675Z,29.40
2017-12-19T01:10:46.376Z,30.00
2017-12-19T01:13:17.032Z,30.10
2017-12-19T01:15:47.741Z,33.97
2017-12-19T01:18:18.404Z,35.53
2017-12-19T01:20:49.128Z,34.47
2017-12-19T01:23:19.829Z,32.27
2017-12-19T01:25:50.560Z,31.60
2017-12-19T01:28:21.252Z,30.30
2017-12-19T01:30:51.951Z,30.63
2017-12-19T01:33:22.648Z,29.77
2017-12-19T01:35:53.385Z,32.00
2017-12-19T01:38:24.112Z,29.83
2017-12-19T01:40:54.783Z,29.83
2017-12-19T01:43:25.472Z,31.10
2017-12-19T01:45:56.153Z,31.40
2017-12-19T01:48:26.884Z,32.13
2017-12-19T01:50:57.551Z,30.23
2017-12-19T01:53:28.307Z,29.90
2017-12-19T01:55:59.010Z,30.57
2017-12-19T01:58:29.728Z,31.30
2017-12-19T02:01:00.426Z,31.17
2017-12-19T02:03:31.142Z,33.13
2017-12-19T02:06:01.876Z,33.93
2017-12-19T02:08:32.572Z,34.10
2017-12-19T02:11:03.265Z,32.57
2017-12-19T02:13:33.940Z,33.87
2017-12-19T02:16:04.655Z,35.90
2017-12-19T02:18:35.362Z,35.57
2017-12-19T02:21:06.081Z,31.57
2017-12-19T02:23:36.793Z,33.20
2017-12-19T02:26:07.492Z,32.20
2017-12-19T02:28:38.172Z,32.77
2017-12-19T02:31:08.860Z,30.40
2017-12-19T02:33:39.553Z,33.17
2017-12-19T02:36:10.244Z,30.47
2017-12-19T02:38:40.927Z,34.20
2017-12-19T02:41:11.584Z,38.80
2017-12-19T02:43:42.284Z,37.37
2017-12-19T02:46:12.962Z,32.30
2017-12-19T02:48:43.694Z,34.17
2017-12-19T02:51:14.373Z,35.40
2017-12-19T02:53:45.023Z,37.73
2017-12-19T02:56:15.708Z,35.70
2017-12-19T02:58:46.397Z,33.93
2017-12-19T03:01:17.139Z,33.43
2017-12-19T03:03:47.812Z,33.80
2017-12-19T03:06:18.485Z,31.37
2017-12-19T03:08:49.199Z,33.87
2017-12-19T03:11:19.902Z,30.23
2017-12-19T03:13:50.608Z,32.63
2017-12-19T03:16:21.276Z,30.67
2017-12-19T03:18:51.996Z,32.67
2017-12-19T03:21:22.682Z,31.83
2017-12-19T03:23:53.368Z,31.17
2017-12-19T03:26:24.052Z,31.57
2017-12-19T03:28:54.764Z,33.47
2017-12-19T03:31:25.448Z,33.30
2017-12-19T03:33:56.166Z,33.83
2017-12-19T03:36:26.863Z,31.63
2017-12-19T03:38:57.579Z,32.03
2017-12-19T03:41:28.228Z,32.73
2017-12-19T03:43:58.984Z,32.37
2017-12-19T03:46:29.713Z,31.13
2017-12-19T03:49:00.420Z,33.23
2017-12-19T03:51:31.140Z,32.37
2017-12-19T03:54:01.825Z,32.83
2017-12-19T03:56:32.497Z,33.30
2017-12-19T03:59:03.217Z,30.90
2017-12-19T04:01:33.903Z,29.63
2017-12-19T04:04:04.624Z,31.60
2017-12-19T04:06:35.364Z,30.03
2017-12-19T04:09:06.052Z,31.03
2017-12-19T04:11:36.783Z,31.60
2017-12-19T04:14:07.484Z,29.63
2017-12-19T04:16:38.173Z,30.33
2017-12-19T04:19:08.869Z,30.27
2017-12-19T04:21:39.545Z,30.17
2017-12-19T04:24:10.301Z,27.97
2017-12-19T04:26:40.953Z,31.33
2017-12-19T04:29:11.632Z,30.60
2017-12-19T04:31:42.351Z,28.53
2017-12-19T04:34:13.094Z,29.47
2017-12-19T04:36:43.760Z,27.83
2017-12-19T04:39:14.425Z,28.03
2017-12-19T04:41:45.112Z,30.20
2017-12-19T04:44:15.890Z,29.43
2017-12-19T04:46:46.603Z,28.77
2017-12-19T04:49:17.309Z,29.47
2017-12-19T04:51:47.973Z,30.00
2017-12-19T04:54:18.673Z,30.33
2017-12-19T04:56:49.385Z,30.03
2017-12-19T04:59:20.064Z,30.30
2017-12-19T05:01:50.749Z,31.77
2017-12-19T05:04:21.451Z,32.37
2017-12-19T05:06:52.206Z,30.33
2017-12-19T05:09:22.907Z,32.47
2017-12-19T05:11:53.601Z,32.87
2017-12-19T05:14:24.309Z,32.47
2017-12-19T05:16:55.013Z,31.47
2017-12-19T05:19:25.736Z,30.97
2017-12-19T05:21:56.404Z,30.57
2017-12-19T05:24:27.184Z,32.80
2017-12-19T05:26:57.867Z,31.03
2017-12-19T05:29:29.544Z,33.93
2017-12-19T05:32:00.304Z,33.37
2017-12-19T05:34:30.994Z,33.53
2017-12-19T05:37:01.700Z,32.00
2017-12-19T05:39:32.378Z,32.33
2017-12-19T05:42:03.035Z,33.87
2017-12-19T05:44:33.742Z,33.00
2017-12-19T05:47:04.416Z,32.27
2017-12-19T05:49:35.116Z,32.83
2017-12-19T05:52:05.825Z,34.67
2017-12-19T05:54:36.536Z,33.90
2017-12-19T05:57:07.212Z,34.10
2017-12-19T05:59:37.894Z,34.23
2017-12-19T06:02:08.580Z,33.87
2017-12-19T06:04:39.277Z,33.13
2017-12-19T06:07:10.000Z,31.90
2017-12-19T06:09:40.666Z,30.93
2017-12-19T06:12:11.355Z,29.63
2017-12-19T06:14:42.008Z,33.10
2017-12-19T06:17:12.776Z,31.40
2017-12-19T06:19:43.497Z,32.87
2017-12-19T06:22:14.181Z,30.43
2017-12-19T06:24:44.873Z,31.77
2017-12-19T06:27:15.577Z,31.40
2017-12-19T06:29:46.253Z,34.00
2017-12-19T06:32:16.966Z,32.07
2017-12-19T06:34:47.619Z,32.07
2017-12-19T06:37:18.316Z,31.87
2017-12-19T06:39:48.997Z,33.93
2017-12-19T06:42:19.712Z,32.27
2017-12-19T06:44:50.394Z,33.60
2017-12-19T06:47:21.086Z,32.40
2017-12-19T06:49:51.758Z,33.30
2017-12-19T06:52:22.477Z,33.43
2017-12-19T06:54:53.214Z,32.47
2017-12-19T06:57:23.954Z,33.43
2017-12-19T06:59:54.656Z,35.90
2017-12-19T07:02:25.339Z,34.57
2017-12-19T07:04:56.061Z,34.90
2017-12-19T07:07:26.744Z,37.07
2017-12-19T07:09:57.464Z,33.33
2017-12-19T07:12:28.168Z,35.27
2017-12-19T07:14:59.184Z,36.87
2017-12-19T07:17:29.885Z,32.77
2017-12-19T07:20:00.572Z,34.33
2017-12-19T07:22:31.293Z,33.37
2017-12-19T07:25:01.968Z,35.97
2017-12-19T07:27:32.678Z,34.27
2017-12-19T07:30:03.388Z,33.23
2017-12-19T07:32:34.085Z,33.17
2017-12-19T07:35:04.788Z,33.07
2017-12-19T07:37:35.477Z,32.07
2017-12-19T07:40:06.193Z,32.03
2017-12-19T07:42:36.925Z,33.40
2017-12-19T07:45:07.634Z,34.03
2017-12-19T07:47:38.367Z,31.77
2017-12-19T07:50:09.041Z,32.87
2017-12-19T07:52:39.752Z,30.93
2017-12-19T07:55:10.434Z,32.97
2017-12-19T07:57:41.142Z,31.53
2017-12-19T08:00:11.825Z,31.33
2017-12-19T08:02:42.554Z,31.23
2017-12-19T08:05:13.261Z,31.57
2017-12-19T08:07:43.986Z,30.80
2017-12-19T08:10:14.688Z,31.93
2017-12-19T08:12:45.397Z,30.33
2017-12-19T08:15:16.105Z,31.73
2017-12-19T08:17:46.824Z,32.27
2017-12-19T08:20:17.521Z,30.93
2017-12-19T08:22:48.241Z,31.43
2017-12-19T08:25:18.912Z,30.57
2017-12-19T08:27:49.598Z,32.57
2017-12-19T08:30:20.271Z,32.37
2017-12-19T08:32:51.048Z,30.47
2017-12-19T08:35:21.729Z,31.37
2017-12-19T08:37:52.432Z,30.30
2017-12-19T08:40:23.132Z,32.07
2017-12-19T08:42:53.813Z,32.57
2017-12-19T08:45:24.486Z,32.43
2017-12-19T08:47:55.207Z,32.20
2017-12-19T08:50:25.899Z,31.70
2017-12-19T08:52:56.592Z,33.23
2017-12-19T08:55:27.281Z,32.50
2017-12-19T08:57:58.051Z,34.00
2017-12-19T09:00:28.812Z,33.23
2017-12-19T09:02:59.495Z,34.50
2017-12-19T09:05:30.166Z,33.83
2017-12-19T09:08:00.864Z,32.23
2017-12-19T09:10:31.555Z,32.83
2017-12-19T09:13:02.310Z,32.83
2017-12-19T09:15:33.025Z,33.17
2017-12-19T09:18:03.740Z,32.77
2017-12-19T09:20:34.408Z,34.90
2017-12-19T09:23:05.128Z,32.73
2017-12-19T09:25:35.860Z,33.00
2017-12-19T09:28:06.576Z,33.07
2017-12-19T09:30:37.265Z,33.00
2017-12-19T09:33:07.933Z,33.90
2017-12-19T09:35:38.589Z,32.63
2017-12-19T09:38:09.293Z,33.00
2017-12-19T09:40:39.995Z,33.37
2017-12-19T09:43:10.709Z,33.77
2017-12-19T09:45:41.422Z,30.60
2017-12-19T09:48:12.080Z,31.87
2017-12-19T09:50:42.754Z,31.60
2017-12-19T09:53:13.469Z,30.50
2017-12-19T09:55:44.162Z,30.83
2017-12-19T09:58:14.868Z,31.10
2017-12-19T10:00:46.526Z,32.83
2017-12-19T10:03:17.207Z,31.33
2017-12-19T10:05:48.608Z,34.23
2017-12-19T10:08:19.309Z,33.87
2017-12-19T10:10:50.008Z,33.63
2017-12-19T10:13:20.689Z,35.50
2017-12-19T10:15:51.361Z,32.43
2017-12-19T10:18:22.072Z,32.83
2017-12-19T10:20:53.631Z,33.07
2017-12-19T10:23:24.369Z,33.80
2017-12-19T10:25:55.051Z,33.43
2017-12-19T10:28:25.760Z,35.00
2017-12-19T10:30:56.513Z,34.80
2017-12-19T10:33:27.226Z,33.77
2017-12-19T10:35:57.893Z,36.43
2017-12-19T10:38:28.994Z,36.50
2017-12-19T10:40:59.677Z,37.47
2017-12-19T10:43:30.352Z,36.70
2017-12-19T10:46:01.021Z,37.70
2017-12-19T10:48:31.676Z,34.90
2017-12-19T10:51:02.372Z,36.57
2017-12-19T10:53:33.051Z,34.63
2017-12-19T10:56:03.814Z,34.43
2017-12-19T10:58:34.482Z,36.37
2017-12-19T11:01:05.203Z,36.07
2017-12-19T11:03:35.932Z,35.43
2017-12-19T11:06:06.624Z,35.30
2017-12-19T11:08:37.324Z,37.57
2017-12-19T11:11:07.997Z,37.50
2017-12-19T11:13:38.656Z,36.00
2017-12-19T11:16:09.352Z,35.83
2017-12-19T11:18:40.113Z,36.07
2017-12-19T11:21:10.813Z,36.07
2017-12-19T11:23:41.560Z,34.50
2017-12-19T11:26:12.229Z,35.00
2017-12-19T11:28:42.920Z,35.63
2017-12-19T11:31:13.601Z,35.97
2017-12-19T11:33:44.319Z,37.27
2017-12-19T11:36:15.009Z,34.50
2017-12-19T11:38:45.692Z,33.97
2017-12-19T11:41:16.420Z,34.27
2017-12-19T11:43:47.120Z,34.40
2017-12-19T11:46:17.820Z,34.97
2017-12-19T11:48:49.340Z,36.30
2017-12-19T11:51:21.132Z,34.53
2017-12-19T11:53:51.799Z,31.57
2017-12-19T11:56:22.496Z,27.97
2017-12-19T11:58:53.174Z,27.00
2017-12-19T12:01:23.913Z,27.80
2017-12-19T12:03:54.588Z,29.07
2017-12-19T12:06:25.313Z,29.20
2017-12-19T12:08:55.985Z,29.43
2017-12-19T12:11:26.677Z,30.83
2017-12-19T12:13:57.338Z,30.23
2017-12-19T12:16:28.009Z,30.77
2017-12-19T12:18:58.684Z,28.90
2017-12-19T12:21:29.401Z,30.20
2017-12-19T12:24:00.093Z,30.77
2017-12-19T12:26:30.772Z,30.53
2017-12-19T12:29:01.486Z,29.60
2017-12-19T12:31:32.175Z,29.33
2017-12-19T12:34:02.860Z,27.50
2017-12-19T12:36:33.525Z,28.57
2017-12-19T12:39:04.227Z,27.47
2017-12-19T12:41:34.871Z,28.70
2017-12-19T12:44:05.573Z,26.67
2017-12-19T12:46:36.272Z,28.17
2017-12-19T12:49:06.944Z,28.03
2017-12-19T12:51:37.604Z,28.20
2017-12-19T12:54:08.293Z,29.20
2017-12-19T12:56:38.950Z,29.33
2017-12-19T12:59:09.595Z,29.17
2017-12-19T13:01:40.278Z,27.47
2017-12-19T13:04:10.948Z,25.87
2017-12-19T13:06:41.672Z,28.97
2017-12-19T13:09:12.336Z,27.13
2017-12-19T13:11:43.013Z,25.63
2017-12-19T13:14:13.684Z,22.70
2017-12-19T13:16:44.399Z,25.90
2017-12-19T13:19:15.092Z,24.37
2017-12-19T13:21:45.772Z,23.00
2017-12-19T13:24:16.454Z,24.43
2017-12-19T13:26:47.111Z,23.87
2017-12-19T13:29:17.776Z,23.43
2017-12-19T13:31:48.432Z,23.47
2017-12-19T13:34:19.113Z,24.83
2017-12-19T13:36:49.784Z,23.97
2017-12-19T13:39:20.477Z,26.50
2017-12-19T13:41:51.144Z,27.87
2017-12-19T13:44:21.804Z,23.50
2017-12-19T13:46:52.494Z,24.63
2017-12-19T13:49:23.165Z,24.93
2017-12-19T13:51:53.853Z,26.30
2017-12-19T13:54:24.571Z,27.13
2017-12-19T13:56:55.196Z,25.80
2017-12-19T13:59:25.886Z,25.20
2017-12-19T14:01:56.569Z,25.60
2017-12-19T14:04:27.242Z,25.97
2017-12-19T14:06:57.898Z,26.70
2017-12-19T14:09:28.597Z,27.47
2017-12-19T14:11:59.263Z,26.17
2017-12-19T14:14:29.970Z,26.97
2017-12-19T14:17:00.645Z,27.37
2017-12-19T14:19:31.318Z,26.73
2017-12-19T14:22:02.014Z,28.50
2017-12-19T14:24:32.716Z,27.23
2017-12-19T14:27:03.408Z,28.43
2017-12-19T14:29:34.077Z,28.27
2017-12-19T14:32:04.752Z,26.97
2017-12-19T14:34:35.452Z,28.97
2017-12-19T14:37:06.125Z,29.20
2017-12-19T14:39:37.165Z,29.13
2017-12-19T14:42:07.843Z,30.43
2017-12-19T14:44:38.516Z,29.77
2017-12-19T14:47:09.236Z,30.97
2017-12-19T14:49:39.917Z,30.40
2017-12-19T14:52:10.605Z,29.50
2017-12-19T14:54:41.325Z,29.60
2017-12-19T14:57:12.038Z,28.80
2017-12-19T14:59:42.693Z,30.57
2017-12-19T15:02:13.434Z,31.00
2017-12-19T15:04:44.136Z,29.73
2017-12-19T15:07:14.808Z,30.27
2017-12-19T15:09:45.552Z,30.00
2017-12-19T15:12:16.249Z,29.80
2017-12-19T15:14:47.241Z,31.90
2017-12-19T15:17:17.906Z,29.60
2017-12-19T15:19:48.585Z,31.07
2017-12-19T15:22:19.295Z,31.10
2017-12-19T15:24:49.961Z,29.87
2017-12-19T15:27:20.641Z,31.23
2017-12-19T15:29:51.332Z,31.17
2017-12-19T15:32:21.999Z,29.30
2017-12-19T15:34:52.647Z,29.77
2017-12-19T15:37:24.005Z,26.50
2017-12-19T15:39:54.775Z,27.70
2017-12-19T15:42:25.419Z,29.10
2017-12-19T15:44:56.125Z,29.00
2017-12-19T15:47:26.841Z,27.77
2017-12-19T15:49:57.525Z,28.83
2017-12-19T15:52:28.214Z,28.07
2017-12-19T15:54:58.972Z,26.77
2017-12-19T15:57:29.696Z,27.83
2017-12-19T16:00:00.395Z,27.97
2017-12-19T16:02:31.104Z,25.87
2017-12-19T16:05:01.816Z,26.33
2017-12-19T16:07:32.539Z,24.67
2017-12-19T16:10:03.216Z,25.73
2017-12-19T16:12:33.910Z,24.83
2017-12-19T16:15:04.596Z,23.60
2017-12-19T16:17:35.289Z,23.93
2017-12-19T16:20:05.975Z,23.50
2017-12-19T16:22:37.233Z,23.77
2017-12-19T16:25:07.907Z,24.37
2017-12-19T16:27:38.589Z,25.00
2017-12-19T16:30:09.289Z,24.87
2017-12-19T16:32:39.983Z,25.53
2017-12-19T16:35:10.664Z,23.80
2017-12-19T16:37:41.340Z,25.27
2017-12-19T16:40:12.065Z,23.13
2017-12-19T16:42:42.755Z,25.77
2017-12-19T16:45:13.467Z,24.30
2017-12-19T16:47:44.153Z,23.80
2017-12-19T16:50:14.845Z,24.47
2017-12-19T16:52:45.523Z,24.30
2017-12-19T16:55:16.214Z,26.03
2017-12-19T16:57:46.953Z,26.60
2017-12-19T17:00:17.621Z,25.57
2017-12-19T17:02:48.324Z,24.73
2017-12-19T17:05:19.002Z,27.73
2017-12-19T17:07:49.665Z,25.40
2017-12-19T17:10:21.344Z,26.00
2017-12-19T17:12:52.009Z,26.13
2017-12-19T17:15:22.760Z,26.60
2017-12-19T17:17:53.461Z,27.23
2017-12-19T17:20:24.153Z,26.13
2017-12-19T17:22:55.151Z,26.00
2017-12-19T17:25:25.837Z,27.07
2017-12-19T17:27:56.573Z,27.03
2017-12-19T17:30:27.514Z,28.43
2017-12-19T17:32:58.226Z,27.80
2017-12-19T17:35:28.969Z,27.37
2017-12-19T17:37:59.653Z,27.77
2017-12-19T17:40:30.440Z,30.67
2017-12-19T17:43:01.145Z,26.70
2017-12-19T17:45:31.845Z,28.23
2017-12-19T17:48:02.533Z,26.97
2017-12-19T17:50:33.211Z,29.20
2017-12-19T17:53:03.921Z,29.17
2017-12-19T17:55:34.584Z,31.37
2017-12-19T17:58:05.297Z,29.67
2017-12-19T18:00:36.003Z,29.47
2017-12-19T18:03:06.722Z,28.43
2017-12-19T18:05:37.441Z,27.33
2017-12-19T18:08:08.172Z,28.33
2017-12-19T18:10:38.884Z,27.43
2017-12-19T18:13:09.533Z,26.97
2017-12-19T18:15:40.248Z,25.83
2017-12-19T18:18:10.910Z,28.27
2017-12-19T18:20:41.580Z,28.00
2017-12-19T18:23:13.241Z,28.67
2017-12-19T18:25:43.953Z,28.93
2017-12-19T18:28:14.677Z,29.07
2017-12-19T18:30:45.385Z,29.87
2017-12-19T18:33:16.061Z,27.53
2017-12-19T18:35:46.770Z,27.97
2017-12-19T18:38:17.459Z,28.40
2017-12-19T18:40:48.149Z,27.80
2017-12-19T18:43:18.873Z,31.07
2017-12-19T18:45:49.569Z,29.17
2017-12-19T18:48:20.245Z,29.00
2017-12-19T18:50:50.960Z,29.63
2017-12-19T18:53:21.654Z,30.83
2017-12-19T18:55:52.365Z,28.67
2017-12-19T18:58:23.075Z,28.73
2017-12-19T19:00:53.764Z,29.70
2017-12-19T19:03:24.770Z,27.97
2017-12-19T19:05:55.482Z,26.60
2017-12-19T19:08:26.181Z,27.80
2017-12-19T19:10:57.675Z,26.67
2017-12-19T19:13:28.375Z,28.67
2017-12-19T19:15:59.093Z,29.47
2017-12-19T19:18:29.777Z,27.87
2017-12-19T19:21:00.485Z,27.70
2017-12-19T19:23:31.156Z,28.97
2017-12-19T19:26:01.870Z,27.17
2017-12-19T19:28:32.537Z,29.13
2017-12-19T19:31:03.244Z,28.10
2017-12-19T19:33:33.970Z,30.20
2017-12-19T19:36:04.671Z,27.93
2017-12-19T19:38:35.368Z,29.13
2017-12-19T19:41:06.040Z,29.67
2017-12-19T19:43:36.809Z,28.23
2017-12-19T19:46:07.520Z,29.33
2017-12-19T19:48:38.248Z,27.90
2017-12-19T19:51:09.642Z,29.27
2017-12-19T19:53:40.406Z,31.30
2017-12-19T19:56:12.894Z,28.07
2017-12-19T19:58:43.601Z,29.20
2017-12-19T20:01:15.282Z,29.40
2017-12-19T20:03:46.269Z,30.10
2017-12-19T20:06:17.072Z,30.00
2017-12-19T20:08:47.748Z,33.23
2017-12-19T20:11:18.465Z,32.60
2017-12-19T20:13:49.186Z,32.43
2017-12-19T20:16:19.901Z,32.40
2017-12-19T20:18:50.582Z,34.23
2017-12-19T20:21:21.300Z,37.00
2017-12-19T20:23:52.009Z,36.00
2017-12-19T20:26:22.765Z,35.23
2017-12-19T20:28:53.515Z,37.70
2017-12-19T20:31:24.565Z,38.23
2017-12-19T20:33:55.274Z,39.43
2017-12-19T20:36:26.906Z,42.40
2017-12-19T20:38:58.086Z,42.20
2017-12-19T20:41:28.764Z,37.43
2017-12-19T20:43:59.437Z,35.03
2017-12-19T20:46:31.096Z,33.63
2017-12-19T20:49:02.143Z,33.17
2017-12-19T20:51:32.833Z,34.27
2017-12-19T20:54:03.660Z,33.93
2017-12-19T20:56:34.329Z,36.43
2017-12-19T20:59:09.991Z,34.47
2017-12-19T21:01:41.364Z,35.07
2017-12-19T21:04:12.745Z,34.37
2017-12-19T21:06:43.431Z,36.60
2017-12-19T21:09:14.151Z,38.17
2017-12-19T21:11:44.841Z,41.20
2017-12-19T21:14:15.535Z,41.40
2017-12-19T21:16:46.257Z,40.03
2017-12-19T21:19:16.936Z,41.00
2017-12-19T21:21:47.670Z,40.53
2017-12-19T21:24:18.372Z,42.30
2017-12-19T21:26:49.385Z,45.43
2017-12-19T21:29:20.113Z,45.90
2017-12-19T21:31:50.816Z,46.63
2017-12-19T21:34:21.483Z,47.03
2017-12-19T21:36:52.172Z,47.30
2017-12-19T21:39:22.909Z,46.23
2017-12-19T21:41:53.597Z,41.67
2017-12-19T21:44:24.310Z,43.20
2017-12-19T21:46:54.991Z,42.17
2017-12-19T21:49:25.687Z,39.83
2017-12-19T21:51:56.993Z,39.13
2017-12-19T21:54:27.688Z,38.53
2017-12-19T21:56:58.370Z,36.53
2017-12-19T21:59:29.072Z,38.83
2017-12-19T22:01:59.813Z,39.13
2017-12-19T22:04:30.514Z,41.07
2017-12-19T22:07:01.376Z,49.83
2017-12-19T22:09:32.074Z,41.87
2017-12-19T22:12:03.692Z,41.27
2017-12-19T22:14:34.352Z,44.67
2017-12-19T22:17:05.043Z,44.07
2017-12-19T22:19:35.763Z,47.50
2017-12-19T22:22:07.312Z,45.63
2017-12-19T22:24:37.994Z,48.93
2017-12-19T22:27:08.666Z,43.40
2017-12-19T22:29:40.091Z,37.93
2017-12-19T22:32:11.190Z,40.80
2017-12-19T22:34:41.890Z,40.17
2017-12-19T22:37:12.613Z,41.20
2017-12-19T22:39:43.373Z,40.20
2017-12-19T22:42:14.071Z,41.17
2017-12-19T22:44:44.786Z,43.03
2017-12-19T22:47:15.545Z,44.20
2017-12-19T22:49:47.393Z,42.20
2017-12-19T22:52:18.094Z,38.53
2017-12-19T22:54:48.804Z,42.27
2017-12-19T22:57:19.515Z,39.40
2017-12-19T22:59:50.212Z,42.93
2017-12-19T23:02:20.935Z,38.13
2017-12-19T23:04:51.646Z,41.23
2017-12-19T23:07:22.357Z,41.47
2017-12-19T23:09:53.040Z,36.67
2017-12-19T23:12:23.741Z,38.80
2017-12-19T23:14:54.433Z,41.93
2017-12-19T23:17:25.133Z,43.13
2017-12-19T23:19:55.834Z,40.03
2017-12-19T23:22:26.552Z,41.63
2017-12-19T23:24:57.305Z,41.93
2017-12-19T23:27:28.029Z,41.43
2017-12-19T23:29:58.755Z,37.80
2017-12-19T23:32:29.493Z,41.57
2017-12-19T23:35:00.161Z,43.50
2017-12-19T23:37:30.903Z,42.27
2017-12-19T23:40:01.577Z,35.73
2017-12-19T23:42:32.303Z,37.67
2017-12-19T23:45:03.002Z,43.07
2017-12-19T23:47:33.683Z,35.67
2017-12-19T23:50:05.204Z,44.20
2017-12-19T23:52:35.870Z,45.63
2017-12-19T23:55:06.557Z,40.13
2017-12-19T23:57:37.235Z,46.40
